METAR Data
IDs: Format: Raw Decoded Include TAF

Data at: 0822 UTC 20 Sep 2018

PAGM 200756Z AUTO 14004KT 10SM OVC004 09/09 A3001 RMK AO2 CIG 004V008 SLP170 T00940089
PAGM 200712Z AUTO 14005KT 10SM BKN004 OVC008 09/09 A3001 RMK AO2
PAGM 200656Z AUTO 14004KT 10SM OVC008 09/09 A3001 RMK AO2 SLP169 T00940089
PAGM 200512Z AUTO 13005KT 10SM OVC008 09/09 A3001 RMK AO2 CIG 005V010
PAGM 200441Z AUTO 13003KT 10SM SCT003 OVC014 09/09 A3001 RMK AO2
PAGM 200408Z AUTO 04004KT 10SM BKN003 OVC016 09/09 A3001 RMK AO2
PAGM 200356Z AUTO 03003KT 10SM SCT003 OVC016 09/09 A3001 RMK AO2 SLPNO T00940089
PAGM 200333Z AUTO 00000KT 10SM SCT010 OVC018 09/09 A3002 RMK AO2
PAGM 200311Z AUTO 00000KT 9SM FEW005 OVC010 09/09 A3002 RMK AO2 CIG 009V014
PAGM 200256Z AUTO 00000KT 6SM BR BKN006 OVC012 09/09 A3002 RMK AO2 SLPNO T00940089 56008
PAGM 200217Z AUTO 19003KT 6SM BR BKN008 OVC014 09/09 A3002 RMK AO2
PAGM 200210Z AUTO 19005KT 8SM SCT008 OVC014 09/09 A3002 RMK AO2
PAGM 200156Z AUTO 19005KT 9SM BKN014 OVC031 09/09 A3003 RMK AO2 SLPNO T00940089
PAGM 200136Z AUTO 20006KT 10SM SCT016 OVC031 09/09 A3003 RMK AO2
PAGM 200124Z AUTO 20006KT 10SM BKN016 OVC033 10/09 A3003 RMK AO2
PAGM 200103Z AUTO 20006KT 10SM BKN014 OVC026 10/09 A3003 RMK AO2
PAGM 200056Z AUTO 20007KT 10SM SCT014 OVC026 10/09 A3003 RMK AO2 SLP176 T01000094
PAGM 200042Z AUTO 20007KT 10SM BKN026 OVC031 10/09 A3003 RMK AO2
PAGM 192356Z AUTO 19006KT 10SM OVC040 10/09 A3004 RMK AO2 RAE10 SLP180 P0000 60000 T01000094 10100 20094 57007
PAGM 192256Z AUTO 19007KT 10SM -RA OVC060 09/09 A3005 RMK AO2 RAB09 SLP183 P0000 T00940094
PAGM 192156Z AUTO 21007KT 9SM FEW006 OVC044 10/09 A3006 RMK AO2 SLP185 T01000094
PAGM 192146Z AUTO 21005KT 9SM SCT006 OVC041 10/09 A3006 RMK AO2
PAGM 192120Z AUTO 21009KT 10SM BKN006 OVC039 10/09 A3006 RMK AO2
PAGM 192103Z AUTO 22008KT 10SM FEW006 OVC041 10/09 A3006 RMK AO2
PAGM 192056Z AUTO 22008KT 10SM OVC041 10/09 A3007 RMK AO2 SLP187 T01000094 56003
PAGM 191956Z AUTO 22010KT 10SM SCT006 BKN021 OVC045 10/09 A3007 RMK AO2 SLP188 T01000094
PAGM 191930Z AUTO 23011KT 10SM BKN006 BKN015 OVC019 10/09 A3006 RMK AO2
PAGM 191812Z AUTO 23012KT 10SM SCT006 OVC011 10/09 A3008 RMK AO2
PAGM 191756Z AUTO 23012KT 10SM BKN006 OVC011 10/09 A3008 RMK AO2 SLP191 60000 T01000094 55003
PAGM 191745Z AUTO 23011KT 9SM BKN006 OVC011 10/09 A3007 RMK AO2
PAGM 191656Z AUTO 24014KT 10SM OVC004 10/09 A3007 RMK AO2 SLP189 T01000094
PAGM 191556Z AUTO 24012KT 7SM OVC004 A3007 RMK AO2 SLPNO FZRANO
PAGM 191356Z AUTO 25011KT 7SM BKN004 OVC012 A3008 RMK AO2 SLPNO FZRANO
PAGM 191256Z AUTO 25015KT 10SM OVC004 10/09 A3008 RMK AO2 RAE08B26E38 SLP194 P0000 T01000094
PAGM 191156Z AUTO 24014KT 6SM -RA BR OVC004 09/09 A3009 RMK AO2 RAB11 SLP195 P0000 60000 T00940094 10100 20089 56002
PAGM 191056Z AUTO 24014KT 10SM OVC004 10/09 A3009 RMK AO2 SLP197 T01000094
PAGM 190956Z AUTO 24014KT 7SM OVC004 09/09 A3009 RMK AO2 SLP196 T00940094
PAGM 190856Z AUTO 25006KT 4SM BR BKN004 OVC010 09/09 A3010 RMK AO2 SLP198 60000 T00890089 401000083 56005
PAGM 190822Z AUTO 24007KT 8SM FEW002 OVC014 09/09 A3010 RMK AO2
PAGM 190810Z AUTO 24007KT 6SM BR FEW004 OVC016 09/09 A3010 RMK AO2
PAGM 190756Z AUTO 25008KT 9SM SCT004 BKN009 OVC018 09/09 A3010 RMK AO2 CIG 007V011 SLP199 T00890089
PAGM 190718Z AUTO 26007KT 4SM BR BKN004 OVC009 09/09 A3010 RMK AO2
PAGM 190656Z AUTO 24006KT 6SM BR FEW004 OVC011 09/09 A3010 RMK AO2 RAE08 CIG 007V012 SLP201 P0000 T00890089
PAGM 190628Z AUTO 25009KT 5SM BR SCT004 OVC013 09/08 A3011 RMK AO2 RAE08 P0000
PAGM 190620Z AUTO 25010KT 6SM BR BKN004 OVC013 09/08 A3011 RMK AO2 RAE08 P0000
PAGM 190610Z AUTO 25009KT 5SM BR SCT006 OVC013 09/08 A3011 RMK AO2 RAE08 P0000
PAGM 190556Z AUTO 25010KT 4SM -RA BR FEW006 OVC015 09/08 A3011 RMK AO2 RAB43 SLP202 P0000 60000 T00890083 10100 20083 55003
PAGM 190542Z AUTO 25011KT 3SM BR FEW006 SCT012 OVC018 09/08 A3011 RMK AO2
PAGM 190534Z AUTO 24011KT 5SM BR FEW008 BKN013 OVC020 09/08 A3011 RMK AO2
PAGM 190456Z AUTO 24015KT 10SM OVC008 09/09 A3010 RMK AO2 CIG 007V011 SLP201 T00940089
PAGM 190406Z AUTO 23014KT 10SM BKN006 OVC050 09/09 A3011 RMK AO2 CIG 004V009
PAGM 190356Z AUTO 23015KT 10SM OVC004 09/09 A3010 RMK AO2 CIG 004V008 SLP200 T00940089
PAGM 190339Z AUTO 23015KT 10SM OVC004 09/09 A3011 RMK AO2
PAGM 190318Z AUTO 21011KT 5SM BR BKN006 OVC015 09/08 A3011 RMK AO2 CIG 003V010
PAGM 190309Z AUTO 20007KT 6SM BR SCT003 BKN016 OVC022 09/08 A3012 RMK AO2
PAGM 190256Z AUTO 23007KT 3SM BR BKN016 BKN022 OVC047 08/08 A3012 RMK AO2 SLP206 T00830078 56004
PAGM 190248Z AUTO 23010KT 2 1/2SM BR BKN021 OVC049 09/08 A3012 RMK AO2
PAGM 190230Z AUTO 22015KT 10SM FEW009 SCT018 OVC049 09/08 A3012 RMK AO2
PAGM 190226Z AUTO 22014KT 10SM SCT011 BKN018 OVC049 09/08 A3012 RMK AO2
PAGM 190156Z AUTO 23014KT 10SM BKN011 OVC049 09/08 A3013 RMK AO2 SLP208 T00940078
PAGM 190138Z AUTO 23013KT 10SM BKN011 OVC044 10/08 A3012 RMK AO2
PAGM 190056Z AUTO 23013KT 10SM FEW011 OVC048 10/09 A3012 RMK AO2 SLP207 T01000089
PAGM 182356Z AUTO 23013KT 10SM SCT019 OVC040 10/08 A3013 RMK AO2 SLP210 60000 T01000083 10100 20089 58002
PAGM 182307Z AUTO 25011KT 10SM FEW026 OVC035 09/08 A3014 RMK AO2
PAGM 182256Z AUTO 26014KT 10SM FEW013 BKN029 OVC036 09/08 A3014 RMK AO2 RAB2159E11 SLP213 P0000 T00940078
PAGM 182232Z AUTO 24014KT 10SM BKN009 BKN015 OVC023 09/08 A3014 RMK AO2 RAB2159E11 CIG 005V012 P0000
PAGM 182156Z AUTO 22010KT 5SM BR BKN014 OVC028 09/08 A3014 RMK AO2 SLP213 T00940083
PAGM 182116Z AUTO 24012KT 10SM SCT014 OVC030 10/08 A3014 RMK AO2
PAGM 182056Z AUTO 24015KT 10SM FEW009 OVC012 10/08 A3014 RMK AO2 SLP212 T01000078 58001
PAGM 182048Z AUTO 24016KT 10SM FEW009 BKN014 OVC029 09/08 A3014 RMK AO2